Hauptseite
METAR-TAF:

METAR-TAF

Flughäfen :

Fliegerhorst Schleswig

Schleswig-Jagel, Deutschland

Breite: 54-28N, Länge: 009-31E, Höhe: 22 m

Beobachtung

Neuester Wetterbericht von vor 42 Minuten, um 15:20 UTC
Wind 9 kt aus West/Nordwest
Temperatur 22°C
Luftfeuchtigkeit 69%
Luftdruck 1025 hPa
Sichtweite 10 km oder mehr

METAR: ETNS 231520Z AUTO 29009KT 9999 // ////// 22/16 Q1025 ///

Zeit: 18:02 (16:02 UTC)

Prognose

Neuester Wetterbericht von vor 5 Stunden und 34 Minuten, um 10:28 UTC
Gültige Prognose vom 23 um 08 UTC bis 23 um 17 UTC
Wind 10 kt aus Südwest
Sichtweite: 1030 m
Durchbrochene Bewölkung in der Höhe von 21000 ft

TAF: ETNS 231028Z 2308/2317 23010KT 9999 NSW BKN210 CANCEL 1030 BY ETGL

Wetterbeobachtungen und Prognosen von mehr als 4000 Flughäfen (METAR und TAF Bericht).

Die verfügbaren Stationen werden durch gelbe und rote Markierungen auf der Karte dargestellt.

Führen Sie die Maus auf sie, um den Namen der Station zu sehen.

Darauf klicken, um die Beobachtung von Wetterbeobachtungen und Prognosen zu sehen.

Um die Karte zu ändern : klicken Sie auf den grünen Tasten mit einem schwarzen Kreuz Zum Vergrößern, auf den grünen Button mit einem Gedankenstrich zu verkleinern, oder auf die grünen Pfeile für benachbarte Karten.


METAR-TAF: